sensor_id;sensor_type;location;lat;lon;timestamp;pressure;altitude;pressure_sealevel;temperature
72236;BMP280;60146;52.498;13.462;2023-09-18T00:01:19;99424.66;;;20.56
72236;BMP280;60146;52.498;13.462;2023-09-18T00:03:45;99428.44;;;20.51
72236;BMP280;60146;52.498;13.462;2023-09-18T00:06:10;99410.97;;;20.50
72236;BMP280;60146;52.498;13.462;2023-09-18T00:08:38;99395.72;;;20.51
72236;BMP280;60146;52.498;13.462;2023-09-18T00:11:04;99386.25;;;20.46
72236;BMP280;60146;52.498;13.462;2023-09-18T00:13:29;99408.66;;;20.45
72236;BMP280;60146;52.498;13.462;2023-09-18T00:15:55;99398.38;;;20.44
72236;BMP280;60146;52.498;13.462;2023-09-18T00:18:20;99419.69;;;20.44
72236;BMP280;60146;52.498;13.462;2023-09-18T00:20:46;99399.16;;;20.41
72236;BMP280;60146;52.498;13.462;2023-09-18T00:23:13;99365.66;;;20.37
72236;BMP280;60146;52.498;13.462;2023-09-18T00:25:40;99376.72;;;20.39
72236;BMP280;60146;52.498;13.462;2023-09-18T00:28:08;99374.44;;;20.41
72236;BMP280;60146;52.498;13.462;2023-09-18T00:30:34;99365.31;;;20.42
72236;BMP280;60146;52.498;13.462;2023-09-18T00:32:59;99363.78;;;20.37
72236;BMP280;60146;52.498;13.462;2023-09-18T00:35:24;99344.00;;;20.31
72236;BMP280;60146;52.498;13.462;2023-09-18T00:37:50;99340.59;;;20.34
72236;BMP280;60146;52.498;13.462;2023-09-18T00:40:15;99342.50;;;20.30
72236;BMP280;60146;52.498;13.462;2023-09-18T00:42:41;99322.69;;;20.25
72236;BMP280;60146;52.498;13.462;2023-09-18T00:45:06;99305.97;;;20.24
72236;BMP280;60146;52.498;13.462;2023-09-18T00:47:33;99282.78;;;20.18
72236;BMP280;60146;52.498;13.462;2023-09-18T00:49:59;99290.75;;;20.18
72236;BMP280;60146;52.498;13.462;2023-09-18T00:52:25;99293.06;;;20.23
72236;BMP280;60146;52.498;13.462;2023-09-18T00:54:51;99290.75;;;20.25
72236;BMP280;60146;52.498;13.462;2023-09-18T00:57:17;99279.38;;;20.21
72236;BMP280;60146;52.498;13.462;2023-09-18T00:59:43;99272.50;;;20.16
72236;BMP280;60146;52.498;13.462;2023-09-18T01:02:08;99250.09;;;20.14
72236;BMP280;60146;52.498;13.462;2023-09-18T01:04:34;99247.44;;;20.14
72236;BMP280;60146;52.498;13.462;2023-09-18T01:07:00;99239.06;;;20.12
72236;BMP280;60146;52.498;13.462;2023-09-18T01:09:29;99236.03;;;20.10
72236;BMP280;60146;52.498;13.462;2023-09-18T01:12:08;99230.72;;;20.10
72236;BMP280;60146;52.498;13.462;2023-09-18T01:14:44;99215.13;;;20.12
72236;BMP280;60146;52.498;13.462;2023-09-18T01:17:16;99207.53;;;20.07
72236;BMP280;60146;52.498;13.462;2023-09-18T01:19:43;99196.50;;;19.98
72236;BMP280;60146;52.498;13.462;2023-09-18T01:22:14;99189.66;;;20.01
72236;BMP280;60146;52.498;13.462;2023-09-18T01:24:40;99190.78;;;20.00
72236;BMP280;60146;52.498;13.462;2023-09-18T01:27:14;99189.25;;;19.95
72236;BMP280;60146;52.498;13.462;2023-09-18T01:29:40;99185.06;;;19.88
72236;BMP280;60146;52.498;13.462;2023-09-18T01:32:05;99172.53;;;19.85
72236;BMP280;60146;52.498;13.462;2023-09-18T01:34:33;99169.13;;;19.81
72236;BMP280;60146;52.498;13.462;2023-09-18T01:37:05;99127.34;;;19.81
72236;BMP280;60146;52.498;13.462;2023-09-18T01:39:34;99136.44;;;19.77
72236;BMP280;60146;52.498;13.462;2023-09-18T01:42:01;99123.56;;;19.82
72236;BMP280;60146;52.498;13.462;2023-09-18T01:44:28;99114.03;;;19.78
72236;BMP280;60146;52.498;13.462;2023-09-18T01:46:55;99111.38;;;19.78
72236;BMP280;60146;52.498;13.462;2023-09-18T01:49:38;99126.22;;;19.79
72236;BMP280;60146;52.498;13.462;2023-09-18T01:52:05;99104.56;;;19.73
72236;BMP280;60146;52.498;13.462;2023-09-18T01:54:31;99122.00;;;19.68
72236;BMP280;60146;52.498;13.462;2023-09-18T01:56:57;99118.59;;;19.64
72236;BMP280;60146;52.498;13.462;2023-09-18T01:59:23;99107.59;;;19.58
72236;BMP280;60146;52.498;13.462;2023-09-18T02:01:49;99065.06;;;19.62
72236;BMP280;60146;52.498;13.462;2023-09-18T02:04:15;99034.69;;;19.56
72236;BMP280;60146;52.498;13.462;2023-09-18T02:06:40;99026.34;;;19.51
72236;BMP280;60146;52.498;13.462;2023-09-18T02:09:06;99027.84;;;19.58
72236;BMP280;60146;52.498;13.462;2023-09-18T02:11:37;99015.31;;;19.55
72236;BMP280;60146;52.498;13.462;2023-09-18T02:14:03;98999.00;;;19.50
72236;BMP280;60146;52.498;13.462;2023-09-18T02:16:29;98992.19;;;19.46
72236;BMP280;60146;52.498;13.462;2023-09-18T02:18:55;98970.53;;;19.44
72236;BMP280;60146;52.498;13.462;2023-09-18T02:21:21;98979.25;;;19.48
72236;BMP280;60146;52.498;13.462;2023-09-18T02:23:51;98954.56;;;19.47
72236;BMP280;60146;52.498;13.462;2023-09-18T02:26:17;98953.44;;;19.48
72236;BMP280;60146;52.498;13.462;2023-09-18T02:28:43;98937.13;;;19.39
72236;BMP280;60146;52.498;13.462;2023-09-18T02:31:08;98932.97;;;19.45
72236;BMP280;60146;52.498;13.462;2023-09-18T02:33:34;98885.13;;;19.42
72236;BMP280;60146;52.498;13.462;2023-09-18T02:35:59;98881.72;;;19.38
72236;BMP280;60146;52.498;13.462;2023-09-18T02:38:25;98882.47;;;19.35
72236;BMP280;60146;52.498;13.462;2023-09-18T02:40:50;98872.97;;;19.31
72236;BMP280;60146;52.498;13.462;2023-09-18T02:43:16;98841.13;;;19.27
72236;BMP280;60146;52.498;13.462;2023-09-18T02:45:41;98819.13;;;19.27
72236;BMP280;60146;52.498;13.462;2023-09-18T02:48:06;98825.97;;;19.24
72236;BMP280;60146;52.498;13.462;2023-09-18T02:50:32;98804.31;;;19.22
72236;BMP280;60146;52.498;13.462;2023-09-18T02:52:57;98797.50;;;19.14
72236;BMP280;60146;52.498;13.462;2023-09-18T02:55:23;98768.69;;;19.16
72236;BMP280;60146;52.498;13.462;2023-09-18T02:57:48;98775.88;;;19.19
72236;BMP280;60146;52.498;13.462;2023-09-18T03:00:14;98756.94;;;19.17
72236;BMP280;60146;52.498;13.462;2023-09-18T03:02:39;98749.31;;;19.19
72236;BMP280;60146;52.498;13.462;2023-09-18T03:05:05;98754.63;;;19.19
72236;BMP280;60146;52.498;13.462;2023-09-18T03:07:30;98739.06;;;19.14
72236;BMP280;60146;52.498;13.462;2023-09-18T03:09:55;98731.09;;;19.21
72236;BMP280;60146;52.498;13.462;2023-09-18T03:12:21;98719.38;;;19.15
72236;BMP280;60146;52.498;13.462;2023-09-18T03:14:47;98686.38;;;19.10
72236;BMP280;60146;52.498;13.462;2023-09-18T03:17:13;98674.19;;;19.19
72236;BMP280;60146;52.498;13.462;2023-09-18T03:19:38;98666.63;;;19.11
72236;BMP280;60146;52.498;13.462;2023-09-18T03:22:04;98652.22;;;19.15
72236;BMP280;60146;52.498;13.462;2023-09-18T03:24:29;98637.84;;;19.06
72236;BMP280;60146;52.498;13.462;2023-09-18T03:26:55;98635.56;;;19.08
72236;BMP280;60146;52.498;13.462;2023-09-18T03:29:20;98640.13;;;19.04
72236;BMP280;60146;52.498;13.462;2023-09-18T03:31:45;98633.28;;;19.03
72236;BMP280;60146;52.498;13.462;2023-09-18T03:34:11;98623.84;;;18.98
72236;BMP280;60146;52.498;13.462;2023-09-18T03:36:36;98585.53;;;18.99
72236;BMP280;60146;52.498;13.462;2023-09-18T03:39:02;98569.97;;;18.95
72236;BMP280;60146;52.498;13.462;2023-09-18T03:41:29;98569.63;;;18.96
72236;BMP280;60146;52.498;13.462;2023-09-18T03:43:59;98535.50;;;18.91
72236;BMP280;60146;52.498;13.462;2023-09-18T03:46:25;98537.03;;;18.92
72236;BMP280;60146;52.498;13.462;2023-09-18T03:48:50;98532.09;;;18.91
72236;BMP280;60146;52.498;13.462;2023-09-18T03:51:15;98537.78;;;18.89
72236;BMP280;60146;52.498;13.462;2023-09-18T03:53:41;98502.19;;;18.83
72236;BMP280;60146;52.498;13.462;2023-09-18T03:56:06;98485.13;;;18.84
72236;BMP280;60146;52.498;13.462;2023-09-18T03:58:32;98507.44;;;18.90
72236;BMP280;60146;52.498;13.462;2023-09-18T04:00:57;98501.38;;;18.86
72236;BMP280;60146;52.498;13.462;2023-09-18T04:03:22;98491.56;;;18.83
72236;BMP280;60146;52.498;13.462;2023-09-18T04:05:48;98501.34;;;18.93
72236;BMP280;60146;52.498;13.462;2023-09-18T04:08:13;98465.38;;;18.85
72236;BMP280;60146;52.498;13.462;2023-09-18T04:10:38;98467.28;;;18.85
72236;BMP280;60146;52.498;13.462;2023-09-18T04:13:04;98486.56;;;18.96
72236;BMP280;60146;52.498;13.462;2023-09-18T04:15:29;98447.22;;;18.80
72236;BMP280;60146;52.498;13.462;2023-09-18T04:17:57;98424.50;;;18.79
72236;BMP280;60146;52.498;13.462;2023-09-18T04:20:23;98396.84;;;18.77
72236;BMP280;60146;52.498;13.462;2023-09-18T04:23:24;98378.63;;;18.79
72236;BMP280;60146;52.498;13.462;2023-09-18T04:25:51;98376.34;;;18.77
72236;BMP280;60146;52.498;13.462;2023-09-18T04:28:19;98341.47;;;18.79
72236;BMP280;60146;52.498;13.462;2023-09-18T04:30:45;98321.03;;;18.73
72236;BMP280;60146;52.498;13.462;2023-09-18T04:33:12;98327.84;;;18.74
72236;BMP280;60146;52.498;13.462;2023-09-18T04:35:38;98329.31;;;18.81
72236;BMP280;60146;52.498;13.462;2023-09-18T04:38:05;98347.88;;;18.81
72236;BMP280;60146;52.498;13.462;2023-09-18T04:40:30;98346.03;;;18.78
72236;BMP280;60146;52.498;13.462;2023-09-18T04:42:58;98353.59;;;18.77
72236;BMP280;60146;52.498;13.462;2023-09-18T04:45:24;98340.31;;;18.77
72236;BMP280;60146;52.498;13.462;2023-09-18T04:47:49;98340.66;;;18.82
72236;BMP280;60146;52.498;13.462;2023-09-18T04:50:15;98334.59;;;18.81
72236;BMP280;60146;52.498;13.462;2023-09-18T04:52:40;98320.94;;;18.83
72236;BMP280;60146;52.498;13.462;2023-09-18T04:55:06;98302.06;;;18.77
72236;BMP280;60146;52.498;13.462;2023-09-18T04:57:32;98296.00;;;18.77
72236;BMP280;60146;52.498;13.462;2023-09-18T04:59:57;98281.59;;;18.75
72236;BMP280;60146;52.498;13.462;2023-09-18T05:02:22;98308.81;;;18.82
72236;BMP280;60146;52.498;13.462;2023-09-18T05:04:50;98304.63;;;18.84
72236;BMP280;60146;52.498;13.462;2023-09-18T05:07:16;98327.34;;;18.85
72236;BMP280;60146;52.498;13.462;2023-09-18T05:09:41;98331.16;;;18.88
72236;BMP280;60146;52.498;13.462;2023-09-18T05:12:08;98324.66;;;18.92
72236;BMP280;60146;52.498;13.462;2023-09-18T05:14:41;98343.59;;;18.94
72236;BMP280;60146;52.498;13.462;2023-09-18T05:17:09;98373.09;;;19.03
72236;BMP280;60146;52.498;13.462;2023-09-18T05:19:35;98395.00;;;19.14
72236;BMP280;60146;52.498;13.462;2023-09-18T05:22:00;98401.81;;;19.18
72236;BMP280;60146;52.498;13.462;2023-09-18T05:24:25;98401.06;;;19.17
72236;BMP280;60146;52.498;13.462;2023-09-18T05:26:53;98416.16;;;19.24
72236;BMP280;60146;52.498;13.462;2023-09-18T05:29:19;98424.41;;;19.36
72236;BMP280;60146;52.498;13.462;2023-09-18T05:31:45;98446.41;;;19.33
72236;BMP280;60146;52.498;13.462;2023-09-18T05:34:11;98468.34;;;19.44
72236;BMP280;60146;52.498;13.462;2023-09-18T05:36:37;98437.63;;;19.39
72236;BMP280;60146;52.498;13.462;2023-09-18T05:39:03;98466.06;;;19.46
72236;BMP280;60146;52.498;13.462;2023-09-18T05:41:28;98481.56;;;19.51
72236;BMP280;60146;52.498;13.462;2023-09-18T05:43:55;98505.81;;;19.56
72236;BMP280;60146;52.498;13.462;2023-09-18T05:46:20;98515.19;;;19.67
72236;BMP280;60146;52.498;13.462;2023-09-18T05:48:46;98539.78;;;19.78
72236;BMP280;60146;52.498;13.462;2023-09-18T05:51:11;98549.53;;;19.88
72236;BMP280;60146;52.498;13.462;2023-09-18T05:53:39;98553.69;;;19.92
72236;BMP280;60146;52.498;13.462;2023-09-18T05:56:05;98590.88;;;19.99
72236;BMP280;60146;52.498;13.462;2023-09-18T05:58:31;98595.34;;;20.05
72236;BMP280;60146;52.498;13.462;2023-09-18T06:00:58;98576.63;;;20.15
72236;BMP280;60146;52.498;13.462;2023-09-18T06:03:25;98603.56;;;20.21
72236;BMP280;60146;52.498;13.462;2023-09-18T06:05:51;98607.38;;;20.20
72236;BMP280;60146;52.498;13.462;2023-09-18T06:08:16;98598.97;;;20.25
72236;BMP280;60146;52.498;13.462;2023-09-18T06:10:42;98605.78;;;20.29
72236;BMP280;60146;52.498;13.462;2023-09-18T06:13:07;98640.22;;;20.43
72236;BMP280;60146;52.498;13.462;2023-09-18T06:15:32;98596.88;;;20.42
72236;BMP280;60146;52.498;13.462;2023-09-18T06:17:58;98620.03;;;20.45
72236;BMP280;60146;52.498;13.462;2023-09-18T06:20:23;98609.31;;;20.52
72236;BMP280;60146;52.498;13.462;2023-09-18T06:22:48;98629.44;;;20.53
72236;BMP280;60146;52.498;13.462;2023-09-18T06:25:14;98619.88;;;20.59
72236;BMP280;60146;52.498;13.462;2023-09-18T06:27:39;98636.59;;;20.59
72236;BMP280;60146;52.498;13.462;2023-09-18T06:30:05;98633.94;;;20.59
72236;BMP280;60146;52.498;13.462;2023-09-18T06:32:31;98642.69;;;20.60
72236;BMP280;60146;52.498;13.462;2023-09-18T06:34:57;98642.59;;;20.66
72236;BMP280;60146;52.498;13.462;2023-09-18T06:37:25;98641.13;;;20.65
72236;BMP280;60146;52.498;13.462;2023-09-18T06:39:50;98648.69;;;20.67
72236;BMP280;60146;52.498;13.462;2023-09-18T06:42:16;98657.72;;;20.76
72236;BMP280;60146;52.498;13.462;2023-09-18T06:44:41;98629.22;;;20.73
72236;BMP280;60146;52.498;13.462;2023-09-18T06:47:06;98619.28;;;20.77
72236;BMP280;60146;52.498;13.462;2023-09-18T06:49:32;98647.69;;;20.87
72236;BMP280;60146;52.498;13.462;2023-09-18T06:51:57;98638.09;;;20.93
72236;BMP280;60146;52.498;13.462;2023-09-18T06:54:23;98651.31;;;21.03
72236;BMP280;60146;52.498;13.462;2023-09-18T06:56:48;98659.56;;;21.08
72236;BMP280;60146;52.498;13.462;2023-09-18T06:59:14;98685.28;;;21.21
72236;BMP280;60146;52.498;13.462;2023-09-18T07:01:40;98706.94;;;21.27
72236;BMP280;60146;52.498;13.462;2023-09-18T07:04:06;98730.75;;;21.40
72236;BMP280;60146;52.498;13.462;2023-09-18T07:06:31;98731.69;;;21.53
72236;BMP280;60146;52.498;13.462;2023-09-18T07:08:57;98780.97;;;21.71
72236;BMP280;60146;52.498;13.462;2023-09-18T07:11:22;98800.38;;;21.72
72236;BMP280;60146;52.498;13.462;2023-09-18T07:13:47;98815.84;;;21.83
72236;BMP280;60146;52.498;13.462;2023-09-18T07:16:13;98813.53;;;21.85
72236;BMP280;60146;52.498;13.462;2023-09-18T07:18:38;98850.78;;;21.92
72236;BMP280;60146;52.498;13.462;2023-09-18T07:21:04;98841.63;;;21.93
72236;BMP280;60146;52.498;13.462;2023-09-18T07:23:29;98832.66;;;22.06
72236;BMP280;60146;52.498;13.462;2023-09-18T07:25:55;98859.22;;;22.16
72236;BMP280;60146;52.498;13.462;2023-09-18T07:28:23;98885.78;;;22.23
72236;BMP280;60146;52.498;13.462;2023-09-18T07:30:49;98892.44;;;22.38
72236;BMP280;60146;52.498;13.462;2023-09-18T07:33:14;98932.16;;;22.58
72236;BMP280;60146;52.498;13.462;2023-09-18T07:35:53;98950.44;;;22.63
72236;BMP280;60146;52.498;13.462;2023-09-18T07:38:19;98967.41;;;22.76
72236;BMP280;60146;52.498;13.462;2023-09-18T07:40:45;98998.56;;;22.85
72236;BMP280;60146;52.498;13.462;2023-09-18T07:43:11;99032.69;;;23.01
72236;BMP280;60146;52.498;13.462;2023-09-18T07:45:38;99055.81;;;23.10
72236;BMP280;60146;52.498;13.462;2023-09-18T07:48:05;99088.63;;;23.37
72236;BMP280;60146;52.498;13.462;2023-09-18T07:50:31;99177.63;;;23.63
72236;BMP280;60146;52.498;13.462;2023-09-18T07:52:58;99220.00;;;23.90
72236;BMP280;60146;52.498;13.462;2023-09-18T07:55:25;99310.41;;;24.27
72236;BMP280;60146;52.498;13.462;2023-09-18T07:57:51;99407.81;;;24.63
72236;BMP280;60146;52.498;13.462;2023-09-18T08:00:17;99506.44;;;25.19
72236;BMP280;60146;52.498;13.462;2023-09-18T08:02:43;99631.59;;;25.73
72236;BMP280;60146;52.498;13.462;2023-09-18T08:05:09;99761.41;;;26.31
72236;BMP280;60146;52.498;13.462;2023-09-18T08:07:35;99809.31;;;26.36
72236;BMP280;60146;52.498;13.462;2023-09-18T08:10:04;99834.97;;;26.40
72236;BMP280;60146;52.498;13.462;2023-09-18T08:12:32;99929.00;;;27.07
72236;BMP280;60146;52.498;13.462;2023-09-18T08:14:57;100095.41;;;27.76
72236;BMP280;60146;52.498;13.462;2023-09-18T08:17:24;100217.53;;;28.48
72236;BMP280;60146;52.498;13.462;2023-09-18T08:19:51;100338.25;;;29.17
72236;BMP280;60146;52.498;13.462;2023-09-18T08:22:17;100406.59;;;29.68
72236;BMP280;60146;52.498;13.462;2023-09-18T08:24:45;100448.94;;;30.36
72236;BMP280;60146;52.498;13.462;2023-09-18T08:27:11;100473.50;;;31.24
72236;BMP280;60146;52.498;13.462;2023-09-18T08:29:37;100497.91;;;32.21
72236;BMP280;60146;52.498;13.462;2023-09-18T08:32:02;100500.44;;;31.80
72236;BMP280;60146;52.498;13.462;2023-09-18T08:34:28;100496.25;;;32.24
72236;BMP280;60146;52.498;13.462;2023-09-18T08:36:53;100511.69;;;32.81
72236;BMP280;60146;52.498;13.462;2023-09-18T08:39:19;100512.56;;;32.57
72236;BMP280;60146;52.498;13.462;2023-09-18T08:41:49;100512.31;;;32.43
72236;BMP280;60146;52.498;13.462;2023-09-18T08:44:15;100518.38;;;32.80
72236;BMP280;60146;52.498;13.462;2023-09-18T08:46:41;100528.88;;;33.20
72236;BMP280;60146;52.498;13.462;2023-09-18T08:49:10;100531.91;;;33.81
72236;BMP280;60146;52.498;13.462;2023-09-18T08:51:36;100533.81;;;34.01
72236;BMP280;60146;52.498;13.462;2023-09-18T08:54:04;100518.41;;;34.42
72236;BMP280;60146;52.498;13.462;2023-09-18T08:56:31;100512.47;;;34.17
72236;BMP280;60146;52.498;13.462;2023-09-18T08:58:57;100510.59;;;33.50
72236;BMP280;60146;52.498;13.462;2023-09-18T09:01:24;100506.31;;;33.10
72236;BMP280;60146;52.498;13.462;2023-09-18T09:03:50;100493.31;;;32.85
72236;BMP280;60146;52.498;13.462;2023-09-18T09:06:16;100482.81;;;32.95
72236;BMP280;60146;52.498;13.462;2023-09-18T09:08:42;100477.75;;;32.64
72236;BMP280;60146;52.498;13.462;2023-09-18T09:11:07;100468.91;;;33.14
72236;BMP280;60146;52.498;13.462;2023-09-18T09:13:33;100469.63;;;33.06
72236;BMP280;60146;52.498;13.462;2023-09-18T09:15:59;100463.66;;;32.57
72236;BMP280;60146;52.498;13.462;2023-09-18T09:18:29;100452.03;;;32.98
72236;BMP280;60146;52.498;13.462;2023-09-18T09:21:01;100463.25;;;33.77
72236;BMP280;60146;52.498;13.462;2023-09-18T09:23:30;100464.84;;;34.56
72236;BMP280;60146;52.498;13.462;2023-09-18T09:26:15;100463.91;;;34.59
72236;BMP280;60146;52.498;13.462;2023-09-18T09:28:40;100450.47;;;34.47
72236;BMP280;60146;52.498;13.462;2023-09-18T09:31:08;100452.44;;;34.47
72236;BMP280;60146;52.498;13.462;2023-09-18T09:33:36;100456.19;;;34.58
72236;BMP280;60146;52.498;13.462;2023-09-18T09:36:04;100442.72;;;34.02
72236;BMP280;60146;52.498;13.462;2023-09-18T09:38:31;100432.97;;;33.66
72236;BMP280;60146;52.498;13.462;2023-09-18T09:41:02;100417.06;;;32.79
72236;BMP280;60146;52.498;13.462;2023-09-18T09:43:29;100425.09;;;32.41
72236;BMP280;60146;52.498;13.462;2023-09-18T09:45:57;100418.34;;;32.12
72236;BMP280;60146;52.498;13.462;2023-09-18T09:48:23;100420.16;;;31.70
72236;BMP280;60146;52.498;13.462;2023-09-18T09:50:50;100407.44;;;31.79
72236;BMP280;60146;52.498;13.462;2023-09-18T09:53:17;100411.81;;;32.10
72236;BMP280;60146;52.498;13.462;2023-09-18T09:55:44;100421.81;;;31.55
72236;BMP280;60146;52.498;13.462;2023-09-18T09:58:10;100411.59;;;30.71
72236;BMP280;60146;52.498;13.462;2023-09-18T10:03:12;100403.38;;;30.47
72236;BMP280;60146;52.498;13.462;2023-09-18T10:05:39;100389.06;;;30.19
72236;BMP280;60146;52.498;13.462;2023-09-18T10:08:10;100392.09;;;30.20
72236;BMP280;60146;52.498;13.462;2023-09-18T10:10:40;100371.16;;;30.09
72236;BMP280;60146;52.498;13.462;2023-09-18T10:16:17;100328.44;;;29.42
72236;BMP280;60146;52.498;13.462;2023-09-18T10:24:28;100321.22;;;29.20
72236;BMP280;60146;52.498;13.462;2023-09-18T10:27:02;100310.34;;;29.23
72236;BMP280;60146;52.498;13.462;2023-09-18T10:29:31;100316.53;;;29.24
72236;BMP280;60146;52.498;13.462;2023-09-18T10:31:58;100324.44;;;29.15
72236;BMP280;60146;52.498;13.462;2023-09-18T10:34:24;100336.88;;;29.09
72236;BMP280;60146;52.498;13.462;2023-09-18T10:36:51;100332.06;;;28.82
72236;BMP280;60146;52.498;13.462;2023-09-18T10:39:17;100356.97;;;28.55
72236;BMP280;60146;52.498;13.462;2023-09-18T10:41:52;100352.50;;;28.64
72236;BMP280;60146;52.498;13.462;2023-09-18T10:44:22;100356.13;;;28.77
72236;BMP280;60146;52.498;13.462;2023-09-18T10:46:51;100361.00;;;29.00
72236;BMP280;60146;52.498;13.462;2023-09-18T10:49:17;100385.34;;;29.16
72236;BMP280;60146;52.498;13.462;2023-09-18T10:51:42;100381.22;;;29.12
72236;BMP280;60146;52.498;13.462;2023-09-18T10:54:09;100387.00;;;29.29
72236;BMP280;60146;52.498;13.462;2023-09-18T10:56:35;100387.56;;;29.55
72236;BMP280;60146;52.498;13.462;2023-09-18T10:59:02;100382.84;;;29.59
72236;BMP280;60146;52.498;13.462;2023-09-18T11:01:29;100382.53;;;29.88
72236;BMP280;60146;52.498;13.462;2023-09-18T11:04:03;100381.84;;;29.69
72236;BMP280;60146;52.498;13.462;2023-09-18T11:06:29;100369.66;;;29.46
72236;BMP280;60146;52.498;13.462;2023-09-18T11:09:03;100362.16;;;29.18
72236;BMP280;60146;52.498;13.462;2023-09-18T11:11:30;100353.97;;;28.87
72236;BMP280;60146;52.498;13.462;2023-09-18T11:13:58;100338.19;;;28.67
72236;BMP280;60146;52.498;13.462;2023-09-18T11:21:28;100317.00;;;28.28
72236;BMP280;60146;52.498;13.462;2023-09-18T11:26:39;100323.50;;;28.08
72236;BMP280;60146;52.498;13.462;2023-09-18T11:29:14;100320.22;;;27.97
72236;BMP280;60146;52.498;13.462;2023-09-18T11:31:49;100302.88;;;27.98
72236;BMP280;60146;52.498;13.462;2023-09-18T11:34:24;100299.84;;;27.96
72236;BMP280;60146;52.498;13.462;2023-09-18T11:36:51;100309.84;;;27.99
72236;BMP280;60146;52.498;13.462;2023-09-18T11:39:37;100298.72;;;27.71
72236;BMP280;60146;52.498;13.462;2023-09-18T11:42:17;100305.09;;;27.58
72236;BMP280;60146;52.498;13.462;2023-09-18T11:44:44;100295.03;;;27.62
72236;BMP280;60146;52.498;13.462;2023-09-18T11:47:14;100280.09;;;27.58
72236;BMP280;60146;52.498;13.462;2023-09-18T11:49:55;100277.47;;;27.51
72236;BMP280;60146;52.498;13.462;2023-09-18T11:52:27;100270.91;;;27.55
72236;BMP280;60146;52.498;13.462;2023-09-18T11:54:56;100263.28;;;27.50
72236;BMP280;60146;52.498;13.462;2023-09-18T11:57:23;100262.56;;;27.46
72236;BMP280;60146;52.498;13.462;2023-09-18T11:59:49;100243.66;;;27.50
72236;BMP280;60146;52.498;13.462;2023-09-18T12:02:26;100254.25;;;27.60
72236;BMP280;60146;52.498;13.462;2023-09-18T12:04:56;100225.88;;;27.56
72236;BMP280;60146;52.498;13.462;2023-09-18T12:07:22;100227.44;;;27.76
72236;BMP280;60146;52.498;13.462;2023-09-18T12:09:48;100264.34;;;28.01
72236;BMP280;60146;52.498;13.462;2023-09-18T12:12:15;100260.50;;;28.21
72236;BMP280;60146;52.498;13.462;2023-09-18T12:14:41;100278.81;;;28.48
72236;BMP280;60146;52.498;13.462;2023-09-18T12:17:14;100293.06;;;28.67
72236;BMP280;60146;52.498;13.462;2023-09-18T12:19:53;100299.31;;;28.65
72236;BMP280;60146;52.498;13.462;2023-09-18T12:22:26;100313.66;;;28.96
72236;BMP280;60146;52.498;13.462;2023-09-18T12:24:51;100330.88;;;29.52
72236;BMP280;60146;52.498;13.462;2023-09-18T12:27:17;100347.44;;;29.85
72236;BMP280;60146;52.498;13.462;2023-09-18T12:29:43;100343.78;;;30.07
72236;BMP280;60146;52.498;13.462;2023-09-18T12:32:11;100343.09;;;30.03
72236;BMP280;60146;52.498;13.462;2023-09-18T12:34:42;100355.31;;;29.80
72236;BMP280;60146;52.498;13.462;2023-09-18T12:37:08;100334.94;;;29.60
72236;BMP280;60146;52.498;13.462;2023-09-18T12:39:36;100339.75;;;29.21
72236;BMP280;60146;52.498;13.462;2023-09-18T12:42:02;100332.94;;;29.14
72236;BMP280;60146;52.498;13.462;2023-09-18T12:44:30;100333.22;;;29.00
72236;BMP280;60146;52.498;13.462;2023-09-18T12:46:59;100327.28;;;28.89
72236;BMP280;60146;52.498;13.462;2023-09-18T12:49:29;100307.94;;;28.56
72236;BMP280;60146;52.498;13.462;2023-09-18T12:52:01;100307.41;;;28.46
72236;BMP280;60146;52.498;13.462;2023-09-18T12:54:56;100319.97;;;28.52
72236;BMP280;60146;52.498;13.462;2023-09-18T12:57:22;100314.16;;;28.53
72236;BMP280;60146;52.498;13.462;2023-09-18T12:59:48;100303.00;;;28.55
72236;BMP280;60146;52.498;13.462;2023-09-18T13:02:17;100312.19;;;28.38
72236;BMP280;60146;52.498;13.462;2023-09-18T13:04:51;100320.06;;;28.07
72236;BMP280;60146;52.498;13.462;2023-09-18T13:07:17;100327.25;;;28.13
72236;BMP280;60146;52.498;13.462;2023-09-18T13:09:42;100339.81;;;28.01
72236;BMP280;60146;52.498;13.462;2023-09-18T13:12:08;100339.84;;;27.75
72236;BMP280;60146;52.498;13.462;2023-09-18T13:14:59;100329.91;;;27.46
72236;BMP280;60146;52.498;13.462;2023-09-18T13:17:38;100313.44;;;27.41
72236;BMP280;60146;52.498;13.462;2023-09-18T13:20:11;100281.50;;;27.40
72236;BMP280;60146;52.498;13.462;2023-09-18T13:22:38;100304.69;;;27.34
72236;BMP280;60146;52.498;13.462;2023-09-18T13:25:05;100302.00;;;27.34
72236;BMP280;60146;52.498;13.462;2023-09-18T13:27:30;100305.34;;;27.41
72236;BMP280;60146;52.498;13.462;2023-09-18T13:29:56;100292.53;;;27.23
72236;BMP280;60146;52.498;13.462;2023-09-18T13:32:21;100288.78;;;27.17
72236;BMP280;60146;52.498;13.462;2023-09-18T13:34:47;100280.44;;;27.08
72236;BMP280;60146;52.498;13.462;2023-09-18T13:37:13;100279.88;;;26.94
72236;BMP280;60146;52.498;13.462;2023-09-18T13:39:39;100271.53;;;26.85
72236;BMP280;60146;52.498;13.462;2023-09-18T13:42:04;100252.88;;;26.72
72236;BMP280;60146;52.498;13.462;2023-09-18T13:44:30;100236.50;;;26.59
72236;BMP280;60146;52.498;13.462;2023-09-18T13:46:56;100220.25;;;26.37
72236;BMP280;60146;52.498;13.462;2023-09-18T13:49:21;100173.06;;;26.33
72236;BMP280;60146;52.498;13.462;2023-09-18T13:51:48;100135.91;;;26.24
72236;BMP280;60146;52.498;13.462;2023-09-18T13:54:15;100070.81;;;26.40
72236;BMP280;60146;52.498;13.462;2023-09-18T13:56:41;99988.41;;;26.74
72236;BMP280;60146;52.498;13.462;2023-09-18T13:59:08;100054.72;;;26.84
72236;BMP280;60146;52.498;13.462;2023-09-18T14:01:36;100010.72;;;26.97
72236;BMP280;60146;52.498;13.462;2023-09-18T14:04:05;100051.34;;;27.03
72236;BMP280;60146;52.498;13.462;2023-09-18T14:06:32;99993.81;;;26.97
72236;BMP280;60146;52.498;13.462;2023-09-18T14:09:00;99947.84;;;26.88
72236;BMP280;60146;52.498;13.462;2023-09-18T14:11:31;99986.38;;;26.82